Terminal Aerodrome Forecast
Issued by NWS Paducah, KY

Home | Current Version | Previous Version | Text Only | Print | Product List | Glossary On
Versions: 1 2 3 4 5 6 7 8 9 10 11 12 13 14 15 16 17 18 19
000
FTUS43 KPAH 270832 AAA
TAFEVV
TAF AMD
KEVV 270832Z 2709/2806 32008KT P6SM SCT005 BKN015
     FM271500 32011G18KT P6SM BKN015
     FM271800 33011G16KT P6SM BKN035
     FM280000 33003KT P6SM SKC=

USA.gov is the U.S. government's official web portal to all federal, state and local government web resources and services.